createdAt,value
2022-09-28T00:01:50.242Z,14.52
2022-09-28T00:04:55.647Z,14.65
2022-09-28T00:08:02.067Z,14.40
2022-09-28T00:11:12.846Z,14.42
2022-09-28T00:14:18.268Z,14.40
2022-09-28T00:17:24.263Z,14.30
2022-09-28T00:20:30.188Z,14.36
2022-09-28T00:23:58.584Z,14.34
2022-09-28T00:27:04.617Z,14.01
2022-09-28T00:30:10.694Z,14.21
2022-09-28T00:33:16.218Z,14.19
2022-09-28T00:36:21.987Z,14.23
2022-09-28T00:39:28.769Z,14.00
2022-09-28T00:42:34.608Z,14.20
2022-09-28T00:45:40.350Z,14.09
2022-09-28T00:49:03.559Z,14.24
2022-09-28T00:52:16.156Z,14.19
2022-09-28T00:55:29.603Z,14.29
2022-09-28T00:58:55.027Z,14.27
2022-09-28T01:02:03.220Z,14.05
2022-09-28T01:05:11.049Z,14.07
2022-09-28T01:08:18.156Z,14.09
2022-09-28T01:11:25.697Z,14.01
2022-09-28T01:14:31.935Z,13.90
2022-09-28T01:18:03.649Z,13.90
2022-09-28T01:21:24.396Z,13.79
2022-09-28T01:24:40.716Z,13.66
2022-09-28T01:27:57.983Z,13.77
2022-09-28T01:31:15.794Z,13.73
2022-09-28T01:34:30.336Z,13.50
2022-09-28T01:37:47.860Z,13.63
2022-09-28T01:40:55.685Z,13.67
2022-09-28T01:44:04.689Z,13.67
2022-09-28T01:47:14.397Z,13.78
2022-09-28T01:50:25.393Z,13.69
2022-09-28T01:53:43.700Z,13.77
2022-09-28T01:57:07.769Z,13.85
2022-09-28T02:00:15.686Z,13.98
2022-09-28T02:03:32.971Z,14.03
2022-09-28T02:06:53.450Z,13.92
2022-09-28T02:10:06.233Z,13.81
2022-09-28T02:13:19.063Z,13.81
2022-09-28T02:16:31.562Z,13.94
2022-09-28T02:19:39.739Z,13.78
2022-09-28T02:22:57.084Z,13.78
2022-09-28T02:26:08.529Z,13.75
2022-09-28T02:29:15.506Z,13.72
2022-09-28T02:32:22.915Z,14.01
2022-09-28T02:35:28.827Z,13.72
2022-09-28T02:38:38.618Z,13.91
2022-09-28T02:42:03.968Z,13.86
2022-09-28T02:45:21.702Z,14.05
2022-09-28T02:48:55.718Z,13.83
2022-09-28T02:52:39.729Z,13.90
2022-09-28T02:56:11.183Z,13.94
2022-09-28T02:59:19.597Z,13.77
2022-09-28T03:02:31.725Z,13.67
2022-09-28T03:06:02.284Z,13.85
2022-09-28T03:09:34.602Z,13.73
2022-09-28T03:12:41.962Z,13.83
2022-09-28T03:15:53.304Z,13.94
2022-09-28T03:18:59.646Z,13.91
2022-09-28T03:22:06.008Z,14.05
2022-09-28T03:25:12.156Z,14.04
2022-09-28T03:28:18.650Z,14.04
2022-09-28T03:31:24.192Z,13.98
2022-09-28T03:34:30.499Z,13.95
2022-09-28T03:37:36.962Z,13.93
2022-09-28T03:40:43.846Z,13.86
2022-09-28T03:43:49.871Z,13.87
2022-09-28T03:46:56.812Z,13.98
2022-09-28T03:50:02.724Z,13.94
2022-09-28T03:53:08.474Z,14.02
2022-09-28T03:56:16.325Z,14.07
2022-09-28T03:59:22.192Z,14.07
2022-09-28T04:02:28.029Z,13.87
2022-09-28T04:05:35.500Z,13.85
2022-09-28T04:08:41.661Z,13.85
2022-09-28T04:12:03.395Z,13.80
2022-09-28T04:15:11.747Z,13.66
2022-09-28T04:18:16.960Z,13.76
2022-09-28T04:21:42.712Z,13.73
2022-09-28T04:24:51.980Z,13.93
2022-09-28T04:28:16.107Z,13.66
2022-09-28T04:31:23.601Z,13.80
2022-09-28T04:34:33.123Z,13.66
2022-09-28T04:37:40.744Z,13.69
2022-09-28T04:40:50.136Z,13.52
2022-09-28T04:43:55.920Z,13.51
2022-09-28T04:47:05.280Z,13.59
2022-09-28T04:50:11.300Z,13.77
2022-09-28T04:53:37.374Z,13.85
2022-09-28T04:56:43.667Z,13.70
2022-09-28T04:59:49.372Z,13.74
2022-09-28T05:02:56.684Z,13.79
2022-09-28T05:06:21.895Z,13.85
2022-09-28T05:09:37.691Z,13.77
2022-09-28T05:12:44.099Z,13.82
2022-09-28T05:15:57.479Z,13.86
2022-09-28T05:19:11.060Z,13.92
2022-09-28T05:22:16.750Z,13.99
2022-09-28T05:25:25.300Z,14.03
2022-09-28T05:28:45.067Z,14.09
2022-09-28T05:32:13.333Z,14.04
2022-09-28T05:35:21.609Z,13.98
2022-09-28T05:38:29.172Z,14.12
2022-09-28T05:41:34.750Z,14.18
2022-09-28T05:44:40.805Z,14.19
2022-09-28T05:47:46.981Z,14.19
2022-09-28T05:50:58.905Z,14.16
2022-09-28T05:54:06.369Z,14.20
2022-09-28T05:57:15.492Z,14.09
2022-09-28T06:00:21.087Z,14.18
2022-09-28T06:03:32.115Z,14.24
2022-09-28T06:06:39.211Z,14.26
2022-09-28T06:09:44.793Z,14.31
2022-09-28T06:12:57.135Z,14.40
2022-09-28T06:16:05.194Z,14.45
2022-09-28T06:19:12.815Z,14.43
2022-09-28T06:22:37.174Z,14.46
2022-09-28T06:25:46.207Z,14.52
2022-09-28T06:28:51.732Z,14.50
2022-09-28T06:31:57.352Z,14.45
2022-09-28T06:35:04.004Z,14.47
2022-09-28T06:38:09.560Z,14.62
2022-09-28T06:41:16.501Z,14.65
2022-09-28T06:44:23.341Z,14.86
2022-09-28T06:47:28.841Z,14.71
2022-09-28T06:50:47.997Z,14.74
2022-09-28T06:54:18.508Z,14.88
2022-09-28T06:58:05.152Z,14.88
2022-09-28T07:01:12.575Z,14.78
2022-09-28T07:04:43.214Z,14.80
2022-09-28T07:08:29.020Z,14.87
2022-09-28T07:11:53.913Z,14.91
2022-09-28T07:15:05.379Z,15.08
2022-09-28T07:18:13.085Z,15.09
2022-09-28T07:21:29.067Z,15.20
2022-09-28T07:24:38.708Z,15.15
2022-09-28T07:28:07.570Z,15.23
2022-09-28T07:31:33.994Z,15.34
2022-09-28T07:34:59.092Z,15.30
2022-09-28T07:38:24.063Z,15.46
2022-09-28T07:41:32.840Z,15.69
2022-09-28T07:44:41.549Z,15.65
2022-09-28T07:47:47.963Z,15.73
2022-09-28T07:51:12.673Z,15.87
2022-09-28T07:54:20.868Z,15.74
2022-09-28T07:57:47.290Z,15.88
2022-09-28T08:01:05.924Z,15.89
2022-09-28T08:04:12.930Z,15.90
2022-09-28T08:07:24.111Z,15.84
2022-09-28T08:10:38.663Z,15.94
2022-09-28T08:14:04.163Z,15.98
2022-09-28T08:17:28.480Z,16.01
2022-09-28T08:20:55.840Z,16.01
2022-09-28T08:24:01.864Z,16.06
2022-09-28T08:27:07.474Z,16.12
2022-09-28T08:30:13.920Z,16.22
2022-09-28T08:33:45.285Z,16.18
2022-09-28T08:37:26.579Z,16.28
2022-09-28T08:40:58.967Z,16.40
2022-09-28T08:44:26.147Z,16.47
2022-09-28T08:48:15.431Z,16.46
2022-09-28T08:51:57.905Z,16.50
2022-09-28T08:55:39.622Z,16.75
2022-09-28T08:58:54.826Z,16.83
2022-09-28T09:02:06.309Z,16.91
2022-09-28T09:05:17.559Z,16.86
2022-09-28T09:09:01.355Z,16.90
2022-09-28T09:12:13.865Z,16.91
2022-09-28T09:15:39.305Z,17.28
2022-09-28T09:19:11.369Z,17.49
2022-09-28T09:22:37.797Z,17.45
2022-09-28T09:25:50.634Z,17.61
2022-09-28T09:29:03.537Z,17.81
2022-09-28T09:32:56.642Z,17.53
2022-09-28T09:36:34.810Z,17.68
2022-09-28T09:40:21.080Z,17.78
2022-09-28T09:44:12.169Z,17.59
2022-09-28T09:47:38.980Z,17.98
2022-09-28T09:51:00.931Z,17.89
2022-09-28T09:54:32.485Z,18.18
2022-09-28T09:58:03.483Z,18.24
2022-09-28T10:01:20.123Z,18.32
2022-09-28T10:04:49.544Z,18.52
2022-09-28T10:08:03.199Z,18.24
2022-09-28T10:11:14.201Z,18.40
2022-09-28T10:14:25.750Z,18.63
2022-09-28T10:17:39.643Z,18.63
2022-09-28T10:21:16.355Z,18.57
2022-09-28T10:24:51.959Z,18.76
2022-09-28T10:27:59.259Z,18.84
2022-09-28T10:31:42.375Z,18.70
2022-09-28T10:35:22.512Z,18.77
2022-09-28T10:38:37.085Z,18.78
2022-09-28T10:41:52.338Z,18.60
2022-09-28T10:45:16.225Z,18.57
2022-09-28T10:48:23.228Z,18.71
2022-09-28T10:51:45.689Z,18.77
2022-09-28T10:55:00.879Z,18.64
2022-09-28T10:58:26.092Z,18.78
2022-09-28T11:01:34.913Z,18.85
2022-09-28T11:04:50.497Z,18.90
2022-09-28T11:08:00.202Z,18.84
2022-09-28T11:11:20.400Z,18.79
2022-09-28T11:14:42.777Z,18.74
2022-09-28T11:18:21.001Z,18.79
2022-09-28T11:21:40.336Z,18.67
2022-09-28T11:24:46.144Z,18.74
2022-09-28T11:27:51.195Z,18.88
2022-09-28T11:30:57.758Z,18.82
2022-09-28T11:34:31.055Z,18.90
2022-09-28T11:38:22.846Z,19.42
2022-09-28T11:42:03.967Z,19.34
2022-09-28T11:45:32.729Z,19.32
2022-09-28T11:48:58.166Z,19.26
2022-09-28T11:52:12.692Z,19.45
2022-09-28T11:55:57.603Z,19.32
2022-09-28T11:59:12.273Z,19.72
2022-09-28T12:02:34.137Z,19.51
2022-09-28T12:05:52.010Z,19.53
2022-09-28T12:09:07.201Z,19.46
2022-09-28T12:12:33.720Z,19.57
2022-09-28T12:16:27.302Z,19.52
2022-09-28T12:19:34.577Z,19.38
2022-09-28T12:22:46.324Z,19.46
2022-09-28T12:26:05.325Z,19.69
2022-09-28T12:29:42.494Z,20.04
2022-09-28T12:33:04.760Z,20.14
2022-09-28T12:36:17.864Z,20.15
2022-09-28T12:39:56.401Z,20.18
2022-09-28T12:43:29.225Z,20.30
2022-09-28T12:47:10.196Z,20.44
2022-09-28T12:50:39.595Z,20.41
2022-09-28T12:53:55.098Z,20.45
2022-09-28T12:57:31.599Z,20.50
2022-09-28T13:01:11.059Z,20.85
2022-09-28T13:04:40.310Z,20.81
2022-09-28T13:07:57.913Z,20.57
2022-09-28T13:11:22.901Z,20.54
2022-09-28T13:14:38.314Z,20.26
2022-09-28T13:17:52.577Z,20.17
2022-09-28T13:21:08.845Z,20.20
2022-09-28T13:24:32.630Z,20.29
2022-09-28T13:27:46.397Z,20.19
2022-09-28T13:30:54.381Z,20.24
2022-09-28T13:34:03.573Z,20.14
2022-09-28T13:37:17.099Z,20.10
2022-09-28T13:41:00.769Z,19.97
2022-09-28T13:44:20.461Z,19.96
2022-09-28T13:47:55.675Z,20.00
2022-09-28T13:51:25.210Z,20.03
2022-09-28T13:55:03.233Z,19.99
2022-09-28T13:58:24.861Z,20.12
2022-09-28T14:01:40.635Z,20.05
2022-09-28T14:05:01.265Z,20.17
2022-09-28T14:08:09.388Z,20.17
2022-09-28T14:11:35.098Z,20.37
2022-09-28T14:14:52.377Z,20.17
2022-09-28T14:18:16.640Z,20.08
2022-09-28T14:21:21.837Z,20.23
2022-09-28T14:24:51.251Z,20.30
2022-09-28T14:28:01.352Z,20.28
2022-09-28T14:31:24.829Z,20.52
2022-09-28T14:34:39.111Z,20.66
2022-09-28T14:38:07.746Z,20.73
2022-09-28T14:41:31.814Z,20.63
2022-09-28T14:45:07.106Z,20.84
2022-09-28T14:48:19.552Z,20.58
2022-09-28T14:51:24.977Z,20.36
2022-09-28T14:54:56.811Z,20.13
2022-09-28T14:58:04.986Z,20.09
2022-09-28T15:01:20.736Z,20.28
2022-09-28T15:04:29.756Z,20.36
2022-09-28T15:07:49.785Z,20.20
2022-09-28T15:10:58.765Z,20.33
2022-09-28T15:14:08.669Z,20.51
2022-09-28T15:17:22.338Z,20.34
2022-09-28T15:20:32.676Z,20.35
2022-09-28T15:23:40.941Z,20.27
2022-09-28T15:26:48.546Z,20.19
2022-09-28T15:30:23.415Z,20.14
2022-09-28T15:33:50.502Z,20.10
2022-09-28T15:36:56.873Z,20.10
2022-09-28T15:40:03.404Z,20.01
2022-09-28T15:43:27.674Z,19.72
2022-09-28T15:46:42.129Z,19.62
2022-09-28T15:49:59.959Z,19.49
2022-09-28T15:53:06.191Z,19.36
2022-09-28T15:56:13.300Z,19.23
2022-09-28T15:59:31.193Z,19.20
2022-09-28T16:02:36.658Z,19.16
2022-09-28T16:05:47.230Z,19.09
2022-09-28T16:08:53.017Z,19.09
2022-09-28T16:11:59.622Z,19.11
2022-09-28T16:15:28.340Z,19.03
2022-09-28T16:18:40.932Z,18.89
2022-09-28T16:21:48.703Z,18.89
2022-09-28T16:24:57.672Z,18.86
2022-09-28T16:28:05.182Z,18.72
2022-09-28T16:31:13.869Z,18.64
2022-09-28T16:34:24.339Z,18.50
2022-09-28T16:37:32.496Z,18.49
2022-09-28T16:40:49.778Z,18.36
2022-09-28T16:43:59.987Z,18.36
2022-09-28T16:47:06.874Z,18.30
2022-09-28T16:50:15.586Z,18.25
2022-09-28T16:53:39.844Z,18.14
2022-09-28T16:56:45.099Z,17.98
2022-09-28T16:59:50.500Z,18.00
2022-09-28T17:02:56.431Z,17.83
2022-09-28T17:06:08.811Z,17.81
2022-09-28T17:09:14.105Z,17.74
2022-09-28T17:12:25.065Z,17.67
2022-09-28T17:15:30.405Z,17.61
2022-09-28T17:18:39.529Z,17.57
2022-09-28T17:21:45.777Z,17.49
2022-09-28T17:24:51.121Z,17.41
2022-09-28T17:27:58.847Z,17.49
2022-09-28T17:31:04.792Z,17.37
2022-09-28T17:34:13.053Z,17.42
2022-09-28T17:37:18.835Z,17.32
2022-09-28T17:40:28.635Z,17.32
2022-09-28T17:43:35.229Z,17.39
2022-09-28T17:46:49.146Z,17.28
2022-09-28T17:49:54.928Z,17.23
2022-09-28T17:53:06.592Z,17.21
2022-09-28T17:56:14.436Z,17.15
2022-09-28T17:59:21.038Z,17.20
2022-09-28T18:02:26.648Z,17.10
2022-09-28T18:05:34.950Z,17.03
2022-09-28T18:08:46.052Z,17.13
2022-09-28T18:12:04.308Z,16.94
2022-09-28T18:15:16.103Z,16.90
2022-09-28T18:18:30.280Z,16.91
2022-09-28T18:21:41.484Z,17.00
2022-09-28T18:24:52.605Z,16.90
2022-09-28T18:28:08.134Z,16.90
2022-09-28T18:31:23.596Z,16.86
2022-09-28T18:35:22.937Z,16.84
2022-09-28T18:43:20.864Z,16.82
2022-09-28T18:46:53.273Z,16.71
2022-09-28T18:50:17.899Z,16.87
2022-09-28T18:53:36.554Z,16.65
2022-09-28T18:56:50.056Z,16.58
2022-09-28T19:10:13.026Z,16.48
2022-09-28T19:13:59.886Z,16.62
2022-09-28T19:17:28.969Z,16.48
2022-09-28T19:35:52.392Z,16.14
2022-09-28T19:39:40.549Z,16.28
2022-09-28T19:43:33.767Z,16.23
2022-09-28T19:47:27.743Z,16.09
2022-09-28T19:51:43.744Z,16.14
2022-09-28T19:55:16.544Z,16.19
2022-09-28T19:58:54.518Z,15.94
2022-09-28T20:02:37.596Z,16.08
2022-09-28T20:06:00.315Z,16.15
2022-09-28T20:09:18.220Z,16.14
2022-09-28T20:12:34.821Z,15.99
2022-09-28T20:15:48.963Z,15.94
2022-09-28T20:19:08.782Z,15.96
2022-09-28T20:22:22.017Z,15.77
2022-09-28T20:25:38.691Z,15.89
2022-09-28T20:28:50.350Z,15.97
2022-09-28T20:32:04.422Z,15.73
2022-09-28T20:35:13.045Z,15.86
2022-09-28T20:38:22.082Z,15.57
2022-09-28T20:41:38.088Z,15.73
2022-09-28T20:44:47.402Z,15.83
2022-09-28T20:47:53.265Z,15.82
2022-09-28T20:51:01.114Z,15.80
2022-09-28T20:54:07.028Z,15.79
2022-09-28T20:57:18.788Z,15.78
2022-09-28T21:00:24.088Z,15.74
2022-09-28T21:03:30.185Z,15.42
2022-09-28T21:06:38.431Z,15.49
2022-09-28T21:09:43.999Z,15.69
2022-09-28T21:12:53.383Z,15.63
2022-09-28T21:16:02.484Z,15.71
2022-09-28T21:19:08.633Z,15.64
2022-09-28T21:22:13.950Z,15.58
2022-09-28T21:25:19.431Z,15.66
2022-09-28T21:28:25.023Z,15.32
2022-09-28T21:31:43.252Z,15.45
2022-09-28T21:34:48.468Z,15.03
2022-09-28T21:37:54.493Z,15.20
2022-09-28T21:41:00.775Z,15.14
2022-09-28T21:44:06.819Z,15.09
2022-09-28T21:47:12.222Z,15.07
2022-09-28T21:50:18.141Z,14.97
2022-09-28T21:53:25.785Z,14.95
2022-09-28T21:56:31.221Z,15.07
2022-09-28T21:59:37.348Z,15.25
2022-09-28T22:02:44.363Z,15.05
2022-09-28T22:05:52.777Z,15.14
2022-09-28T22:08:58.580Z,15.07
2022-09-28T22:12:04.450Z,15.06
2022-09-28T22:15:10.667Z,15.12
2022-09-28T22:18:16.583Z,15.17
2022-09-28T22:21:32.084Z,14.95
2022-09-28T22:24:38.087Z,14.43
2022-09-28T22:27:46.286Z,14.91
2022-09-28T22:30:51.947Z,14.84
2022-09-28T22:33:58.688Z,14.27
2022-09-28T22:37:04.930Z,14.60
2022-09-28T22:40:13.000Z,13.92
2022-09-28T22:43:19.507Z,14.41
2022-09-28T22:46:28.050Z,14.38
2022-09-28T22:49:33.708Z,14.56
2022-09-28T22:52:39.268Z,14.58
2022-09-28T22:55:45.630Z,14.45
2022-09-28T22:58:51.185Z,14.28
2022-09-28T23:01:57.079Z,14.36
2022-09-28T23:05:02.527Z,14.45
2022-09-28T23:08:08.107Z,14.39
2022-09-28T23:11:14.559Z,14.48
2022-09-28T23:14:20.178Z,14.47
2022-09-28T23:17:25.934Z,14.45
2022-09-28T23:20:31.728Z,14.53
2022-09-28T23:23:37.520Z,14.56
2022-09-28T23:26:43.187Z,14.59
2022-09-28T23:29:49.540Z,14.36
2022-09-28T23:32:55.056Z,14.13
2022-09-28T23:36:01.818Z,14.23
2022-09-28T23:39:07.305Z,14.21
2022-09-28T23:42:13.032Z,14.15
2022-09-28T23:45:18.593Z,14.19
2022-09-28T23:48:24.451Z,14.23
2022-09-28T23:51:30.112Z,14.18
2022-09-28T23:54:35.694Z,14.39
2022-09-28T23:57:44.074Z,14.43
